Weather observations for the past three days for
Mount Shasta
Imperial (Metric)
Date Time (pdt) Wind (mph) Vis. (mi.) Weather Sky Cond. Temperature (ºF) Relative Humidity Wind Chill (°F) Heat Index (°F) Pressure Precipitation (in)
Air Dwpt 6 hour altimeter (in) sea level (mb) 1 hr 3 hr 6 hr
Max. Min.
08 07:56 Calm 10.00 NULL NULL 54 48 80% 30.12 1019.9
08 06:56 Calm 0.00 Mostly Cloudy BKN023 48.9 45 86% 30.11 1019.6
08 05:56 Calm 0.00 Mostly Cloudy BKN021 46.9 44.1 90% 30.1 1019.2
08 04:56 Calm 0.00 Mostly Cloudy BKN021 48 46 57 48 93% 30.1 1019.1
08 03:56 Calm 0.00 Mostly Cloudy BKN020 51.1 48.9 92% 30.1 1018.7
08 02:56 Calm 0.00 Overcast OVC016 51.1 48.9 92% 30.1 1018.7
08 01:56 Calm 0.00 Mostly Cloudy BKN015 48.9 48 97% 30.1 1018.7
08 00:56 Calm 0.00 Fair CLR 51.1 48.9 92% 30.11 1019.3
07 23:56 Calm 0.00 A Few Clouds FEW017 54 52 93% 30.1 1019.3
07 22:56 Calm 0.00 Mostly Cloudy BKN019 57 54 73 57 90% 30.1 1019.1
07 21:56 E 3 0.00 Fair CLR 62.1 55 78% 30.09 1018.8
07 20:56 Calm 0.00 Fair CLR 63 54 73% 30.08 1018.1
07 19:56 Vrbl 5 0.00 Fair CLR 64.9 53.1 66% 30.04 1017.2
07 18:56 Vrbl 7 10.00 Fair CLR 68 55 63% 30.03 1016.9
07 17:56 Vrbl 5 10.00 Fair CLR 71.1 55 57% 30.03 1016.8
07 16:56 Vrbl 7 10.00 Fair CLR 73 53.1 75 63 50% 30.03 1016.4
07 15:56 SE 6 10.00 Fair CLR 73.9 52 46% 30.04 1016.7
07 14:56 Calm 10.00 Fair CLR 73.9 52 46% 30.06 1017.5
07 13:56 Calm 10.00 Fair CLR 73.9 53.1 48% 30.08 1018.5
07 12:56 Calm 10.00 Fair CLR 71.1 53.1 53% 30.1 1019.1
07 11:56 Calm 10.00 Fair CLR 66 52 61% 30.12 1019.9
07 10:56 Calm 10.00 Fair CLR 63 52 64 48.9 68% 30.13 1020.4
07 09:56 Vrbl 3 10.00 Overcast OVC015 60.1 52 75% 30.14 1020.7
07 08:56 Calm 10.00 Mostly Cloudy BKN014 60.1 52 75% 30.13 1020.0
07 07:56 Calm 10.00 Overcast OVC012 55 48.9 80% 30.13 1020.1
07 06:56 Calm 10.00 Overcast OVC011 50 45 83% 30.12 1020.0
07 05:56 Calm 10.00 Overcast OVC011 48.9 46.9 93% 30.11 1019.4
07 04:56 Calm 10.00 Overcast OVC009 50 46 54 46.9 86% 30.12 1019.4
07 03:56 Calm 10.00 Overcast OVC008 50 45 83% 30.13 1019.5
07 02:56 Calm 10.00 Overcast OVC008 48.9 45 86% 30.13 1019.7
07 01:56 Calm 10.00 Fair CLR 46.9 45 93% 30.14 1020.1
07 00:56 Calm 10.00 Fair CLR 50 46 86% 30.13 1019.9
06 23:56 Calm 10.00 Fair CLR 52 48 86% 30.13 1019.8
06 22:56 Calm 10.00 Fair CLR 54 51.1 77 54 90% 30.13 1020.2
06 21:56 Calm 10.00 Fair CLR 57 54 90% 30.13 1020.4
06 20:56 Calm 10.00 Fair CLR 61 55 81% 30.11 1019.7
06 19:56 Calm 10.00 Partly Cloudy SCT090 66 55 68% 30.08 1018.6
06 18:56 Calm 10.00 Fair CLR 70 54 57% 30.07 1018.1
06 17:56 Vrbl 3 10.00 Fair CLR 73.9 52 46% 30.06 1017.5
06 16:56 SE 7 10.00 Fair CLR 77 51.1 80.1 66 40% 78 30.06 1017.2
06 15:56 Vrbl 6 10.00 Fair CLR 78.1 46 32% 78 30.07 1017.5
06 14:56 Calm 10.00 Fair CLR 78.1 45 31% 78 30.09 1018.2
06 13:56 SE 6 10.00 Fair CLR 77 42.1 29% 78 30.1 1018.7
06 12:56 Calm 10.00 Fair CLR 75 48 39% 77 30.12 1019.4
06 11:56 Calm 10.00 Fair CLR 71.1 50 47% 30.14 1020.5
06 10:56 Vrbl 3 10.00 Fair CLR 66 51.1 66.9 48.9 59% 30.15 1021.0
06 09:56 Calm 10.00 Fair CLR 59 48.9 69% 30.15 1021.5
06 08:56 Calm 10.00 Partly Cloudy SCT011 55.9 48 75% 30.15 1021.8
06 07:56 Calm 10.00 Overcast OVC009 51.1 46.9 86% 30.15 1022.1
06 06:56 Calm 10.00 Overcast OVC008 50 46 86% 30.14 1021.3
06 05:56 Calm 10.00 Overcast OVC007 50 46 86% 30.12 1020.2
06 04:56 Calm 10.00 Overcast OVC007 50 46.9 51.1 50 89% 30.12 1019.6
06 03:56 Calm 10.00 Overcast OVC010 50 48 93% 30.11 1019.0
06 02:56 Calm 10.00 Overcast SCT008 OVC013 51.1 48 89% 30.1 1018.7
06 01:56 Calm 10.00 Overcast BKN005 OVC014 51.1 48 89% 30.1 1018.8
06 00:56 Calm 10.00 Overcast OVC004 51.1 48.9 92% 30.1 1018.9
05 23:56 Calm 10.00 Overcast BKN005 OVC012 51.1 48.9 92% 30.08 1018.5
05 22:56 Calm 10.00 Mostly Cloudy SCT004 BKN013 51.1 48.9 72 51.1 92% 30.06 1018.2
05 21:56 Calm 10.00 Overcast BKN004 OVC012 52 48.9 89% 30.05 1017.8
05 20:56 Vrbl 3 10.00 Overcast OVC004 52 50 93% 30.01 1017.0
05 19:56 Calm 10.00 Partly Cloudy SCT006 53.1 50 89% 29.97 1016.1
05 18:56 Calm 10.00 Fair CLR 59 51.1 75% 29.93 1014.4
05 17:56 Calm 10.00 A Few Clouds FEW095 66.9 51.1 57% 29.91 1013.0
05 16:56 Vrbl 5 10.00 Fair CLR 71.1 50 77 64.9 47% 29.9 1012.3
05 15:56 Vrbl 7 10.00 Fair CLR 75 39.9 28% 77 29.9 1012.2
05 14:56 NW 7 10.00 Fair CLR 75.9 42.1 30% 77 29.91 1012.4
05 13:56 Calm 10.00 Fair CLR 73.9 42.1 32% 29.92 1013.0
05 12:56 Vrbl 6 10.00 Fair CLR 71.1 39.9 32% 29.94 1013.7
05 11:56 Vrbl 5 10.00 Fair CLR 69.1 39 33% 29.95 1014.0
05 10:56 Vrbl 3 10.00 Fair CLR 64.9 41 66 45 42% 29.95 1014.2
05 09:56 Calm 10.00 Fair CLR 60.1 50 70% 29.95 1014.5
05 08:56 Calm 10.00 Fair CLR 53.1 46.9 80% 29.96 1015.3
Date Time (pdt) Wind (mph) Vis. (mi.) Weather Sky Cond. Air Dwpt Max. Min. Relative Humidity Wind Chill (°F) Heat Index (°F) altimeter (in) sea level (mb) 1 hr 3 hr 6 hr
6 hour
Temperature (ºF) Pressure Precipitation (in)